createdAt,value
2022-10-06T00:01:11.551Z,15.45
2022-10-06T00:03:39.830Z,15.49
2022-10-06T00:06:07.966Z,15.34
2022-10-06T00:08:38.484Z,15.45
2022-10-06T00:11:06.542Z,15.50
2022-10-06T00:13:34.499Z,15.47
2022-10-06T00:16:02.280Z,15.42
2022-10-06T00:18:30.315Z,15.46
2022-10-06T00:21:01.067Z,15.56
2022-10-06T00:23:31.468Z,15.52
2022-10-06T00:25:58.528Z,15.45
2022-10-06T00:28:26.575Z,15.33
2022-10-06T00:30:56.125Z,15.32
2022-10-06T00:33:24.027Z,15.32
2022-10-06T00:36:00.854Z,15.37
2022-10-06T00:38:28.651Z,15.38
2022-10-06T00:40:56.014Z,15.40
2022-10-06T00:43:53.733Z,15.33
2022-10-06T00:46:31.881Z,15.35
2022-10-06T00:49:22.031Z,15.35
2022-10-06T00:52:04.347Z,15.34
2022-10-06T00:54:33.445Z,15.44
2022-10-06T00:57:00.817Z,15.44
2022-10-06T00:59:27.808Z,15.50
2022-10-06T01:02:04.429Z,15.57
2022-10-06T01:04:37.273Z,15.67
2022-10-06T01:07:04.639Z,15.64
2022-10-06T01:09:32.585Z,15.66
2022-10-06T01:12:04.169Z,15.69
2022-10-06T01:14:31.925Z,15.68
2022-10-06T01:17:12.086Z,15.81
2022-10-06T01:20:11.763Z,15.84
2022-10-06T01:23:06.805Z,15.96
2022-10-06T01:25:35.527Z,16.06
2022-10-06T01:28:06.968Z,15.97
2022-10-06T01:30:52.652Z,15.87
2022-10-06T01:33:26.169Z,15.86
2022-10-06T01:35:53.652Z,15.75
2022-10-06T01:38:21.968Z,15.84
2022-10-06T01:40:52.491Z,15.81
2022-10-06T01:43:20.685Z,15.85
2022-10-06T01:45:55.808Z,15.83
2022-10-06T01:48:24.065Z,15.83
2022-10-06T01:50:51.347Z,15.78
2022-10-06T01:53:19.104Z,15.71
2022-10-06T01:55:46.434Z,15.74
2022-10-06T01:58:13.641Z,15.73
2022-10-06T02:00:41.076Z,15.73
2022-10-06T02:03:08.551Z,15.75
2022-10-06T02:05:35.760Z,15.71
2022-10-06T02:08:03.607Z,15.69
2022-10-06T02:10:30.865Z,15.72
2022-10-06T02:12:57.820Z,15.67
2022-10-06T02:15:26.793Z,15.69
2022-10-06T02:17:54.811Z,15.81
2022-10-06T02:20:22.393Z,15.85
2022-10-06T02:22:49.686Z,15.82
2022-10-06T02:25:17.212Z,15.83
2022-10-06T02:27:44.571Z,15.80
2022-10-06T02:30:14.505Z,15.73
2022-10-06T02:32:44.016Z,15.67
2022-10-06T02:35:12.984Z,15.67
2022-10-06T02:37:41.605Z,15.62
2022-10-06T02:40:09.967Z,15.58
2022-10-06T02:42:38.202Z,15.54
2022-10-06T02:45:06.942Z,15.62
2022-10-06T02:47:36.390Z,15.53
2022-10-06T02:50:07.797Z,15.54
2022-10-06T02:52:38.341Z,15.44
2022-10-06T02:55:07.506Z,15.58
2022-10-06T02:57:34.471Z,15.59
2022-10-06T03:00:01.434Z,15.65
2022-10-06T03:02:30.967Z,15.76
2022-10-06T03:04:58.024Z,15.75
2022-10-06T03:07:25.051Z,15.75
2022-10-06T03:09:51.960Z,15.73
2022-10-06T03:12:19.202Z,15.84
2022-10-06T03:14:46.086Z,15.76
2022-10-06T03:17:13.046Z,15.81
2022-10-06T03:19:40.075Z,15.91
2022-10-06T03:22:07.125Z,15.94
2022-10-06T03:24:34.994Z,15.87
2022-10-06T03:27:02.033Z,15.99
2022-10-06T03:29:29.798Z,16.01
2022-10-06T03:31:58.419Z,15.92
2022-10-06T03:34:25.724Z,15.99
2022-10-06T03:36:55.766Z,16.02
2022-10-06T03:39:22.730Z,16.01
2022-10-06T03:41:50.254Z,15.99
2022-10-06T03:44:17.189Z,16.03
2022-10-06T03:46:44.181Z,15.89
2022-10-06T03:49:11.182Z,16.02
2022-10-06T03:51:41.772Z,15.80
2022-10-06T03:54:12.470Z,15.94
2022-10-06T03:56:42.642Z,15.98
2022-10-06T03:59:16.382Z,15.95
2022-10-06T04:01:48.252Z,15.96
2022-10-06T04:04:15.381Z,15.94
2022-10-06T04:06:44.545Z,16.04
2022-10-06T04:09:15.712Z,15.92
2022-10-06T04:11:44.741Z,16.08
2022-10-06T04:14:15.854Z,16.08
2022-10-06T04:16:50.177Z,15.82
2022-10-06T04:19:18.974Z,16.04
2022-10-06T04:21:47.660Z,15.91
2022-10-06T04:24:17.155Z,15.84
2022-10-06T04:26:46.794Z,15.82
2022-10-06T04:29:14.457Z,15.93
2022-10-06T04:31:42.564Z,15.89
2022-10-06T04:34:13.217Z,16.01
2022-10-06T04:36:42.602Z,16.00
2022-10-06T04:39:12.117Z,15.87
2022-10-06T04:41:41.964Z,15.99
2022-10-06T04:44:09.003Z,15.98
2022-10-06T04:46:44.709Z,15.96
2022-10-06T04:49:19.069Z,15.94
2022-10-06T04:51:49.759Z,15.90
2022-10-06T04:54:18.532Z,15.92
2022-10-06T04:56:46.415Z,15.77
2022-10-06T04:59:13.366Z,15.74
2022-10-06T05:01:45.268Z,15.92
2022-10-06T05:04:12.312Z,15.86
2022-10-06T05:06:42.286Z,15.73
2022-10-06T05:09:15.477Z,15.72
2022-10-06T05:11:42.469Z,15.69
2022-10-06T05:14:11.073Z,15.75
2022-10-06T05:16:38.386Z,15.67
2022-10-06T05:19:07.737Z,15.60
2022-10-06T05:21:34.831Z,15.72
2022-10-06T05:24:02.861Z,15.70
2022-10-06T05:26:34.315Z,15.56
2022-10-06T05:29:01.861Z,15.56
2022-10-06T05:31:32.762Z,15.64
2022-10-06T05:34:00.492Z,15.61
2022-10-06T05:36:30.663Z,15.32
2022-10-06T05:38:59.064Z,15.36
2022-10-06T05:41:37.613Z,15.40
2022-10-06T05:44:04.630Z,15.47
2022-10-06T05:46:33.189Z,15.28
2022-10-06T05:49:09.141Z,15.35
2022-10-06T05:51:38.726Z,15.34
2022-10-06T05:54:06.384Z,15.15
2022-10-06T05:56:38.381Z,15.19
2022-10-06T05:59:06.145Z,15.13
2022-10-06T06:01:41.685Z,14.89
2022-10-06T06:04:13.957Z,15.08
2022-10-06T06:06:48.576Z,14.91
2022-10-06T06:09:19.748Z,15.01
2022-10-06T06:11:51.113Z,14.85
2022-10-06T06:14:44.353Z,14.93
2022-10-06T06:17:11.503Z,14.70
2022-10-06T06:19:38.575Z,14.67
2022-10-06T06:22:05.501Z,14.90
2022-10-06T06:24:32.465Z,14.94
2022-10-06T06:26:59.409Z,14.93
2022-10-06T06:29:26.354Z,15.11
2022-10-06T06:31:53.348Z,15.07
2022-10-06T06:34:20.304Z,15.03
2022-10-06T06:36:53.543Z,15.18
2022-10-06T06:39:21.806Z,15.07
2022-10-06T06:41:49.194Z,15.14
2022-10-06T06:44:16.374Z,15.20
2022-10-06T06:46:49.433Z,15.34
2022-10-06T06:49:18.960Z,15.41
2022-10-06T06:51:49.979Z,15.40
2022-10-06T06:54:18.205Z,15.41
2022-10-06T06:56:48.944Z,15.39
2022-10-06T06:59:16.150Z,15.58
2022-10-06T07:01:45.710Z,15.50
2022-10-06T07:04:15.705Z,15.49
2022-10-06T07:06:57.826Z,15.40
2022-10-06T07:09:26.370Z,15.43
2022-10-06T07:11:54.954Z,15.28
2022-10-06T07:14:24.028Z,15.51
2022-10-06T07:17:09.690Z,15.53
2022-10-06T07:19:57.175Z,15.42
2022-10-06T07:22:46.596Z,15.40
2022-10-06T07:25:32.034Z,15.41
2022-10-06T07:27:59.049Z,15.48
2022-10-06T07:30:29.204Z,15.38
2022-10-06T07:32:56.266Z,15.45
2022-10-06T07:35:25.169Z,15.65
2022-10-06T07:37:55.667Z,15.64
2022-10-06T07:40:24.990Z,15.81
2022-10-06T07:42:52.317Z,15.90
2022-10-06T07:45:45.405Z,15.59
2022-10-06T07:48:17.969Z,15.82
2022-10-06T07:50:49.059Z,16.21
2022-10-06T07:53:18.133Z,16.03
2022-10-06T07:55:47.757Z,16.04
2022-10-06T07:58:18.775Z,16.11
2022-10-06T08:00:48.785Z,16.17
2022-10-06T08:03:18.042Z,15.97
2022-10-06T08:05:59.026Z,16.28
2022-10-06T08:08:26.197Z,15.91
2022-10-06T08:11:01.623Z,15.89
2022-10-06T08:13:32.323Z,15.86
2022-10-06T08:16:16.923Z,15.93
2022-10-06T08:18:53.342Z,15.96
2022-10-06T08:21:34.411Z,16.10
2022-10-06T08:24:02.055Z,15.76
2022-10-06T08:26:31.216Z,16.09
2022-10-06T08:29:02.155Z,16.00
2022-10-06T08:31:30.920Z,15.99
2022-10-06T08:33:57.992Z,15.88
2022-10-06T08:36:31.832Z,16.03
2022-10-06T08:39:00.526Z,16.18
2022-10-06T08:42:03.831Z,16.56
2022-10-06T08:44:50.439Z,16.43
2022-10-06T08:47:23.453Z,16.60
2022-10-06T08:49:57.386Z,16.37
2022-10-06T08:52:50.239Z,16.09
2022-10-06T08:55:41.758Z,15.89
2022-10-06T08:58:55.608Z,16.25
2022-10-06T09:01:47.679Z,16.54
2022-10-06T09:04:29.262Z,16.90
2022-10-06T09:07:16.611Z,16.71
2022-10-06T09:10:31.246Z,16.73
2022-10-06T09:13:11.729Z,16.93
2022-10-06T09:16:07.539Z,16.27
2022-10-06T09:19:08.286Z,16.76
2022-10-06T09:21:46.268Z,16.99
2022-10-06T09:24:47.544Z,17.40
2022-10-06T09:27:50.492Z,16.69
2022-10-06T09:30:18.808Z,16.62
2022-10-06T09:32:51.372Z,16.49
2022-10-06T09:35:25.014Z,16.64
2022-10-06T09:38:09.067Z,17.17
2022-10-06T09:40:51.392Z,17.38
2022-10-06T09:43:29.637Z,16.92
2022-10-06T09:46:21.218Z,17.06
2022-10-06T09:48:48.126Z,17.05
2022-10-06T09:51:18.305Z,17.38
2022-10-06T09:54:16.359Z,17.69
2022-10-06T09:56:46.079Z,17.76
2022-10-06T09:59:40.146Z,17.41
2022-10-06T10:02:37.267Z,17.46
2022-10-06T10:05:21.287Z,17.46
2022-10-06T10:08:22.257Z,17.76
2022-10-06T10:11:28.104Z,18.04
2022-10-06T10:13:59.830Z,18.57
2022-10-06T10:16:34.515Z,18.50
2022-10-06T10:19:05.587Z,18.56
2022-10-06T10:21:34.867Z,18.51
2022-10-06T10:24:14.948Z,18.42
2022-10-06T10:27:13.159Z,18.13
2022-10-06T10:30:09.218Z,18.32
2022-10-06T10:33:09.309Z,17.70
2022-10-06T10:35:45.729Z,18.05
2022-10-06T10:38:24.661Z,18.18
2022-10-06T10:41:06.846Z,18.41
2022-10-06T10:44:10.596Z,18.98
2022-10-06T10:46:54.871Z,19.10
2022-10-06T10:49:33.585Z,19.06
2022-10-06T10:52:20.381Z,18.91
2022-10-06T10:55:41.176Z,19.32
2022-10-06T10:58:46.804Z,19.52
2022-10-06T11:02:13.359Z,19.22
2022-10-06T11:04:49.481Z,19.50
2022-10-06T11:07:50.002Z,20.04
2022-10-06T11:10:30.414Z,19.66
2022-10-06T11:13:38.669Z,19.35
2022-10-06T11:16:40.626Z,20.04
2022-10-06T11:19:35.805Z,20.18
2022-10-06T11:22:44.546Z,20.02
2022-10-06T11:25:47.968Z,20.52
2022-10-06T11:29:20.030Z,20.43
2022-10-06T11:32:54.242Z,20.60
2022-10-06T11:35:27.431Z,20.42
2022-10-06T11:38:37.796Z,20.83
2022-10-06T11:41:38.732Z,19.51
2022-10-06T11:44:37.238Z,20.68
2022-10-06T11:47:38.382Z,20.71
2022-10-06T11:50:36.580Z,20.69
2022-10-06T11:53:06.005Z,20.31
2022-10-06T11:55:33.051Z,20.42
2022-10-06T11:58:41.920Z,19.73
2022-10-06T12:01:02.484Z,20.48
2022-10-06T12:03:30.947Z,20.61
2022-10-06T12:05:58.023Z,20.56
2022-10-06T12:08:40.749Z,20.60
2022-10-06T12:11:43.748Z,21.04
2022-10-06T12:18:05.045Z,19.58
2022-10-06T12:21:10.451Z,19.74
2022-10-06T12:23:57.865Z,19.50
2022-10-06T12:27:10.334Z,19.50
2022-10-06T12:30:10.886Z,19.27
2022-10-06T12:32:49.658Z,20.18
2022-10-06T12:35:34.030Z,20.41
2022-10-06T12:38:43.077Z,19.26
2022-10-06T12:41:13.056Z,19.64
2022-10-06T12:43:56.968Z,19.40
2022-10-06T12:46:44.766Z,19.92
2022-10-06T12:49:37.168Z,19.94
2022-10-06T12:52:54.314Z,20.85
2022-10-06T12:55:49.317Z,20.26
2022-10-06T12:58:32.316Z,20.83
2022-10-06T13:01:08.872Z,20.17
2022-10-06T13:03:37.688Z,21.17
2022-10-06T13:06:08.592Z,21.18
2022-10-06T13:08:39.674Z,19.32
2022-10-06T13:11:15.859Z,21.06
2022-10-06T13:13:53.264Z,21.35
2022-10-06T13:16:46.617Z,21.24
2022-10-06T13:19:27.158Z,20.94
2022-10-06T13:21:54.540Z,20.81
2022-10-06T13:24:27.118Z,20.61
2022-10-06T13:26:54.624Z,20.87
2022-10-06T13:29:25.905Z,21.03
2022-10-06T13:31:56.670Z,20.54
2022-10-06T13:34:43.203Z,21.02
2022-10-06T13:37:15.404Z,20.98
2022-10-06T13:39:42.424Z,20.55
2022-10-06T13:42:16.180Z,21.00
2022-10-06T13:45:14.668Z,21.21
2022-10-06T13:47:41.769Z,20.65
2022-10-06T13:50:19.789Z,20.97
2022-10-06T13:52:48.830Z,20.79
2022-10-06T13:55:29.476Z,20.90
2022-10-06T13:58:04.977Z,20.65
2022-10-06T14:01:01.316Z,20.86
2022-10-06T14:06:18.955Z,20.47
2022-10-06T14:08:54.088Z,20.26
2022-10-06T14:11:29.104Z,20.38
2022-10-06T14:14:02.270Z,19.95
2022-10-06T14:16:30.166Z,20.23
2022-10-06T14:19:05.605Z,20.62
2022-10-06T14:21:34.644Z,20.83
2022-10-06T14:24:28.539Z,20.38
2022-10-06T14:27:06.282Z,20.80
2022-10-06T14:29:34.270Z,20.19
2022-10-06T14:32:13.977Z,20.15
2022-10-06T14:34:41.966Z,20.32
2022-10-06T14:37:15.323Z,20.53
2022-10-06T14:39:44.945Z,20.25
2022-10-06T14:42:14.887Z,19.77
2022-10-06T14:44:43.110Z,20.14
2022-10-06T14:47:10.490Z,20.17
2022-10-06T14:49:38.113Z,19.99
2022-10-06T14:52:05.582Z,20.17
2022-10-06T14:54:34.470Z,19.93
2022-10-06T14:57:01.729Z,20.20
2022-10-06T14:59:28.863Z,19.72
2022-10-06T15:01:55.841Z,19.69
2022-10-06T15:04:27.571Z,18.68
2022-10-06T15:07:13.269Z,19.08
2022-10-06T15:09:40.235Z,19.21
2022-10-06T15:12:07.172Z,19.17
2022-10-06T15:14:39.920Z,18.88
2022-10-06T15:17:07.504Z,18.79
2022-10-06T15:19:34.500Z,18.40
2022-10-06T15:22:06.193Z,18.52
2022-10-06T15:24:33.122Z,18.40
2022-10-06T15:27:23.861Z,18.33
2022-10-06T15:29:51.654Z,18.20
2022-10-06T15:32:18.598Z,18.04
2022-10-06T15:34:45.605Z,17.98
2022-10-06T15:37:12.563Z,17.97
2022-10-06T15:39:39.540Z,17.98
2022-10-06T15:42:07.973Z,17.94
2022-10-06T15:44:35.322Z,18.03
2022-10-06T15:47:04.648Z,17.77
2022-10-06T15:49:32.974Z,17.90
2022-10-06T15:52:03.691Z,17.65
2022-10-06T15:54:39.414Z,17.61
2022-10-06T15:57:11.597Z,17.70
2022-10-06T15:59:40.991Z,17.57
2022-10-06T16:02:15.762Z,17.28
2022-10-06T16:04:44.311Z,17.34
2022-10-06T16:07:19.959Z,16.96
2022-10-06T16:09:50.441Z,16.92
2022-10-06T16:12:23.203Z,16.78
2022-10-06T16:14:50.586Z,16.81
2022-10-06T16:17:18.957Z,16.57
2022-10-06T16:19:46.925Z,16.61
2022-10-06T16:22:17.883Z,16.75
2022-10-06T16:24:44.890Z,16.66
2022-10-06T16:27:16.123Z,16.59
2022-10-06T16:29:43.150Z,16.70
2022-10-06T16:32:10.691Z,16.57
2022-10-06T16:34:37.603Z,16.37
2022-10-06T16:37:04.650Z,16.36
2022-10-06T16:39:31.614Z,16.32
2022-10-06T16:41:58.622Z,16.33
2022-10-06T16:44:25.558Z,16.26
2022-10-06T16:46:52.483Z,15.89
2022-10-06T16:49:19.807Z,15.73
2022-10-06T16:51:46.784Z,15.70
2022-10-06T16:54:17.015Z,15.48
2022-10-06T16:56:53.814Z,15.46
2022-10-06T16:59:25.946Z,15.34
2022-10-06T17:01:53.153Z,15.23
2022-10-06T17:04:23.527Z,15.08
2022-10-06T17:06:56.781Z,14.92
2022-10-06T17:09:27.858Z,14.72
2022-10-06T17:12:02.333Z,14.71
2022-10-06T17:14:31.991Z,14.52
2022-10-06T17:16:59.373Z,14.34
2022-10-06T17:19:29.980Z,14.36
2022-10-06T17:21:59.284Z,14.21
2022-10-06T17:24:28.515Z,14.40
2022-10-06T17:26:57.148Z,14.54
2022-10-06T17:29:25.891Z,14.16
2022-10-06T17:31:56.551Z,14.12
2022-10-06T17:34:27.824Z,14.09
2022-10-06T17:36:59.256Z,14.14
2022-10-06T17:39:26.157Z,14.05
2022-10-06T17:41:53.995Z,14.02
2022-10-06T17:44:26.274Z,13.86
2022-10-06T17:49:30.406Z,13.62
2022-10-06T17:51:57.533Z,13.53
2022-10-06T17:54:27.272Z,13.54
2022-10-06T17:56:57.362Z,13.31
2022-10-06T17:59:30.306Z,13.33
2022-10-06T18:02:02.429Z,13.24
2022-10-06T18:04:29.921Z,13.24
2022-10-06T18:06:57.304Z,13.20
2022-10-06T18:09:25.020Z,13.08
2022-10-06T18:11:56.560Z,13.19
2022-10-06T18:14:30.150Z,12.95
2022-10-06T18:17:03.715Z,13.00
2022-10-06T18:19:34.926Z,12.91
2022-10-06T18:22:10.107Z,12.74
2022-10-06T18:24:38.928Z,12.82
2022-10-06T18:27:07.789Z,12.53
2022-10-06T18:29:38.077Z,12.45
2022-10-06T18:36:12.289Z,12.43
2022-10-06T18:37:41.460Z,12.45
2022-10-06T18:40:11.161Z,12.41
2022-10-06T18:42:39.368Z,12.41
2022-10-06T18:45:26.828Z,12.39
2022-10-06T18:48:12.674Z,12.39
2022-10-06T18:50:39.902Z,12.32
2022-10-06T18:53:07.114Z,12.36
2022-10-06T18:55:34.884Z,12.04
2022-10-06T18:58:02.090Z,11.96
2022-10-06T19:00:29.027Z,11.88
2022-10-06T19:02:56.721Z,11.81
2022-10-06T19:05:24.635Z,11.92
2022-10-06T19:07:54.002Z,11.85
2022-10-06T19:10:21.425Z,11.86
2022-10-06T19:12:48.451Z,11.73
2022-10-06T19:15:20.253Z,11.60
2022-10-06T19:17:48.820Z,11.74
2022-10-06T19:20:16.077Z,11.61
2022-10-06T19:22:43.359Z,11.79
2022-10-06T19:25:13.798Z,11.74
2022-10-06T19:27:41.063Z,11.18
2022-10-06T19:30:08.382Z,11.23
2022-10-06T19:32:35.361Z,11.52
2022-10-06T19:35:06.397Z,11.74
2022-10-06T19:37:36.326Z,11.98
2022-10-06T19:40:03.529Z,11.94
2022-10-06T19:42:59.820Z,11.95
2022-10-06T19:45:26.796Z,11.75
2022-10-06T19:47:54.585Z,11.66
2022-10-06T19:50:21.638Z,11.62
2022-10-06T19:52:48.592Z,11.39
2022-10-06T19:55:15.521Z,11.35
2022-10-06T19:57:43.072Z,11.34
2022-10-06T20:00:11.353Z,11.45
2022-10-06T20:02:42.185Z,11.50
2022-10-06T20:05:16.815Z,11.45
2022-10-06T20:07:47.088Z,11.41
2022-10-06T20:10:15.218Z,11.45
2022-10-06T20:12:42.337Z,11.16
2022-10-06T20:15:10.843Z,11.07
2022-10-06T20:17:38.137Z,10.47
2022-10-06T20:20:05.771Z,10.62
2022-10-06T20:22:32.738Z,10.77
2022-10-06T20:25:01.726Z,10.87
2022-10-06T20:27:28.683Z,10.72
2022-10-06T20:29:57.896Z,10.40
2022-10-06T20:32:24.848Z,10.00
2022-10-06T20:34:51.770Z,9.95
2022-10-06T20:37:18.674Z,10.23
2022-10-06T20:40:04.015Z,10.13
2022-10-06T20:42:31.243Z,9.97
2022-10-06T20:44:58.425Z,9.96
2022-10-06T20:47:25.379Z,10.27
2022-10-06T20:49:55.037Z,10.47
2022-10-06T20:52:24.330Z,10.33
2022-10-06T20:54:51.452Z,10.42
2022-10-06T20:57:18.575Z,10.44
2022-10-06T20:59:46.052Z,10.32
2022-10-06T21:02:13.373Z,10.45
2022-10-06T21:04:43.546Z,10.51
2022-10-06T21:07:11.139Z,10.38
2022-10-06T21:09:38.105Z,10.25
2022-10-06T21:12:05.217Z,10.29
2022-10-06T21:14:34.033Z,10.31
2022-10-06T21:17:01.686Z,10.38
2022-10-06T21:19:30.169Z,10.36
2022-10-06T21:21:57.229Z,10.35
2022-10-06T21:24:24.348Z,10.38
2022-10-06T21:26:52.612Z,10.27
2022-10-06T21:29:20.469Z,9.30
2022-10-06T21:31:47.494Z,8.52
2022-10-06T21:34:14.815Z,8.71
2022-10-06T21:36:44.164Z,9.22
2022-10-06T21:39:12.945Z,9.36
2022-10-06T21:41:40.361Z,9.47
2022-10-06T21:44:08.823Z,9.78
2022-10-06T21:46:54.412Z,9.62
2022-10-06T21:49:24.694Z,9.68
2022-10-06T21:51:55.116Z,9.35
2022-10-06T21:54:23.697Z,9.06
2022-10-06T21:56:51.166Z,8.92
2022-10-06T21:59:18.458Z,9.25
2022-10-06T22:01:47.429Z,9.35
2022-10-06T22:04:15.529Z,9.35
2022-10-06T22:06:45.118Z,9.33
2022-10-06T22:09:16.529Z,9.12
2022-10-06T22:11:43.928Z,8.88
2022-10-06T22:14:18.217Z,8.89
2022-10-06T22:16:45.610Z,9.25
2022-10-06T22:19:14.901Z,9.17
2022-10-06T22:21:46.238Z,9.22
2022-10-06T22:24:20.139Z,8.94
2022-10-06T22:26:48.672Z,8.52
2022-10-06T22:29:18.433Z,8.02
2022-10-06T22:31:47.701Z,8.06
2022-10-06T22:34:20.128Z,8.59
2022-10-06T22:36:47.318Z,8.92
2022-10-06T22:39:14.737Z,8.77
2022-10-06T22:41:41.987Z,8.62
2022-10-06T22:44:09.098Z,8.46
2022-10-06T22:46:37.470Z,8.39
2022-10-06T22:49:05.950Z,8.46
2022-10-06T22:51:33.325Z,8.70
2022-10-06T22:54:01.002Z,9.02
2022-10-06T22:56:31.750Z,9.13
2022-10-06T22:58:59.596Z,8.98
2022-10-06T23:01:28.756Z,8.93
2022-10-06T23:03:56.360Z,8.97
2022-10-06T23:06:24.390Z,8.08
2022-10-06T23:08:51.520Z,7.96
2022-10-06T23:11:21.212Z,8.08
2022-10-06T23:13:50.137Z,7.99
2022-10-06T23:16:19.243Z,7.76
2022-10-06T23:18:46.989Z,8.03
2022-10-06T23:21:21.845Z,8.20
2022-10-06T23:23:58.083Z,8.48
2022-10-06T23:26:25.504Z,8.41
2022-10-06T23:28:57.651Z,8.10
2022-10-06T23:31:29.294Z,7.74
2022-10-06T23:33:56.689Z,8.38
2022-10-06T23:36:23.959Z,8.47
2022-10-06T23:38:50.915Z,8.67
2022-10-06T23:41:18.199Z,8.80
2022-10-06T23:43:45.235Z,8.49
2022-10-06T23:46:12.863Z,8.46
2022-10-06T23:48:40.172Z,8.64
2022-10-06T23:51:11.200Z,8.44
2022-10-06T23:53:39.004Z,8.46
2022-10-06T23:56:06.804Z,7.88
2022-10-06T23:58:34.366Z,7.39
